createdAt,value
2019-02-28T00:00:26.621Z,14.50
2019-02-28T00:00:57.829Z,15.20
2019-02-28T00:01:29.083Z,14.18
2019-02-28T00:02:00.243Z,13.75
2019-02-28T00:02:31.494Z,15.40
2019-02-28T00:03:02.839Z,14.00
2019-02-28T00:03:34.087Z,13.53
2019-02-28T00:04:05.333Z,12.93
2019-02-28T00:04:36.614Z,13.30
2019-02-28T00:05:07.858Z,14.28
2019-02-28T00:05:39.147Z,13.98
2019-02-28T00:06:12.685Z,12.55
2019-02-28T00:06:44.250Z,13.75
2019-02-28T00:07:18.064Z,13.83
2019-02-28T00:07:49.855Z,12.65
2019-02-28T00:08:21.787Z,13.30
2019-02-28T00:08:53.647Z,13.22
2019-02-28T00:09:25.826Z,13.10
2019-02-28T00:09:58.238Z,13.90
2019-02-28T00:10:30.889Z,12.53
2019-02-28T00:11:05.013Z,12.07
2019-02-28T00:11:36.107Z,14.13
2019-02-28T00:12:10.221Z,11.30
2019-02-28T00:12:41.423Z,12.23
2019-02-28T00:13:12.635Z,12.60
2019-02-28T00:13:43.896Z,12.90
2019-02-28T00:14:15.114Z,12.73
2019-02-28T00:14:46.381Z,12.40
2019-02-28T00:15:17.631Z,11.97
2019-02-28T00:15:48.847Z,11.68
2019-02-28T00:16:20.663Z,11.33
2019-02-28T00:16:51.883Z,11.33
2019-02-28T00:17:23.089Z,11.40
2019-02-28T00:17:54.303Z,12.55
2019-02-28T00:18:25.569Z,11.48
2019-02-28T00:18:59.036Z,12.58
2019-02-28T00:19:30.248Z,12.00
2019-02-28T00:20:01.457Z,10.65
2019-02-28T00:20:32.712Z,11.85
2019-02-28T00:21:06.968Z,10.58
2019-02-28T00:21:37.393Z,8.85
2019-02-28T00:22:11.399Z,10.82
2019-02-28T00:22:42.831Z,10.70
2019-02-28T00:23:14.041Z,11.38
2019-02-28T00:23:45.243Z,11.60
2019-02-28T00:24:16.445Z,12.18
2019-02-28T00:24:47.667Z,11.88
2019-02-28T00:25:18.896Z,11.15
2019-02-28T00:25:50.106Z,12.07
2019-02-28T00:26:21.423Z,11.30
2019-02-28T00:26:52.636Z,9.43
2019-02-28T00:27:23.844Z,12.05
2019-02-28T00:27:55.050Z,11.35
2019-02-28T00:28:26.592Z,11.38
2019-02-28T00:29:00.442Z,12.00
2019-02-28T00:29:33.557Z,11.35
2019-02-28T00:30:05.961Z,10.93
2019-02-28T00:30:37.387Z,10.72
2019-02-28T00:31:14.389Z,11.70
2019-02-28T00:31:42.590Z,11.40
2019-02-28T00:32:13.804Z,11.93
2019-02-28T00:32:45.015Z,11.95
2019-02-28T00:33:16.225Z,11.25
2019-02-28T00:33:47.438Z,11.25
2019-02-28T00:34:18.708Z,11.45
2019-02-28T00:34:49.900Z,11.20
2019-02-28T00:35:21.167Z,10.20
2019-02-28T00:35:52.378Z,10.18
2019-02-28T00:36:23.621Z,10.45
2019-02-28T00:36:54.835Z,10.65
2019-02-28T00:37:26.068Z,10.63
2019-02-28T00:37:57.450Z,9.63
2019-02-28T00:38:29.686Z,9.85
2019-02-28T00:39:01.677Z,9.60
2019-02-28T00:39:34.912Z,10.40
2019-02-28T00:40:06.622Z,10.70
2019-02-28T00:40:39.266Z,10.43
2019-02-28T00:41:10.566Z,10.58
2019-02-28T00:41:44.496Z,11.03
2019-02-28T00:42:17.674Z,9.88
2019-02-28T00:42:50.739Z,9.28
2019-02-28T00:43:22.257Z,10.98
2019-02-28T00:43:56.860Z,10.30
2019-02-28T00:44:30.427Z,9.68
2019-02-28T00:45:02.216Z,9.43
2019-02-28T00:45:36.393Z,9.78
2019-02-28T00:46:07.258Z,9.50
2019-02-28T00:46:44.056Z,10.28
2019-02-28T00:47:12.786Z,8.30
2019-02-28T00:47:44.008Z,10.25
2019-02-28T00:48:15.239Z,9.30
2019-02-28T00:48:46.441Z,8.83
2019-02-28T00:49:17.662Z,9.35
2019-02-28T00:49:49.018Z,9.20
2019-02-28T00:50:20.228Z,9.25
2019-02-28T00:50:51.465Z,8.13
2019-02-28T00:51:22.691Z,8.48
2019-02-28T00:51:53.919Z,8.23
2019-02-28T00:52:25.196Z,8.68
2019-02-28T00:52:56.395Z,7.33
2019-02-28T00:53:27.619Z,8.33
2019-02-28T00:53:58.832Z,8.48
2019-02-28T00:54:30.044Z,7.00
2019-02-28T00:55:01.264Z,8.40
2019-02-28T00:55:32.514Z,9.13
2019-02-28T00:56:03.735Z,8.60
2019-02-28T00:56:34.941Z,7.60
2019-02-28T00:57:06.206Z,7.37
2019-02-28T00:57:37.422Z,8.38
2019-02-28T00:58:08.614Z,8.25
2019-02-28T00:58:39.822Z,7.87
2019-02-28T00:59:11.038Z,8.70
2019-02-28T00:59:42.276Z,9.00
2019-02-28T01:00:13.466Z,7.60
2019-02-28T01:00:44.668Z,8.73
2019-02-28T01:01:15.919Z,8.75
2019-02-28T01:01:47.124Z,8.38
2019-02-28T01:02:18.695Z,7.33
2019-02-28T01:02:53.529Z,8.45
2019-02-28T01:03:27.422Z,8.88
2019-02-28T01:03:58.082Z,7.87
2019-02-28T01:04:30.901Z,7.72
2019-02-28T01:05:04.977Z,8.43
2019-02-28T01:05:36.560Z,7.75
2019-02-28T01:06:10.551Z,7.87
2019-02-28T01:06:41.764Z,8.20
2019-02-28T01:07:16.216Z,7.35
2019-02-28T01:07:48.320Z,6.72
2019-02-28T01:08:22.137Z,7.62
2019-02-28T01:08:52.999Z,7.80
2019-02-28T01:09:27.098Z,7.92
2019-02-28T01:09:58.009Z,7.45
2019-02-28T01:10:29.537Z,7.95
2019-02-28T01:11:00.750Z,7.35
2019-02-28T01:11:31.951Z,8.00
2019-02-28T01:12:03.202Z,7.72
2019-02-28T01:12:34.411Z,6.47
2019-02-28T01:13:05.643Z,8.10
2019-02-28T01:13:36.876Z,8.13
2019-02-28T01:14:08.089Z,6.22
2019-02-28T01:14:39.288Z,7.47
2019-02-28T01:15:10.782Z,7.40
2019-02-28T01:15:45.044Z,8.20
2019-02-28T01:16:16.069Z,6.83
2019-02-28T01:16:50.241Z,7.53
2019-02-28T01:17:20.931Z,7.35
2019-02-28T01:17:52.142Z,7.42
2019-02-28T01:18:23.373Z,7.55
2019-02-28T01:18:54.573Z,5.92
2019-02-28T01:19:25.810Z,5.85
2019-02-28T01:19:57.008Z,6.90
2019-02-28T01:20:28.217Z,7.83
2019-02-28T01:20:59.418Z,7.65
2019-02-28T01:21:30.615Z,7.92
2019-02-28T01:22:01.829Z,6.28
2019-02-28T01:22:33.033Z,7.05
2019-02-28T01:23:04.239Z,6.33
2019-02-28T01:23:35.505Z,7.03
2019-02-28T01:24:06.725Z,6.12
2019-02-28T01:24:37.940Z,7.40
2019-02-28T01:25:09.147Z,7.25
2019-02-28T01:25:40.942Z,6.12
2019-02-28T01:26:12.495Z,6.40
2019-02-28T01:26:46.726Z,7.33
2019-02-28T01:27:17.279Z,6.87
2019-02-28T01:27:52.419Z,8.03
2019-02-28T01:28:23.409Z,7.75
2019-02-28T01:29:01.474Z,7.45
2019-02-28T01:29:28.411Z,7.53
2019-02-28T01:29:59.618Z,6.65
2019-02-28T01:30:31.336Z,7.80
2019-02-28T01:31:02.725Z,7.85
2019-02-28T01:31:33.926Z,7.00
2019-02-28T01:32:05.139Z,7.45
2019-02-28T01:32:36.333Z,7.47
2019-02-28T01:33:07.529Z,7.78
2019-02-28T01:33:38.820Z,7.65
2019-02-28T01:34:10.026Z,7.53
2019-02-28T01:34:41.226Z,7.75
2019-02-28T01:35:12.429Z,5.72
2019-02-28T01:35:43.680Z,8.00
2019-02-28T01:36:15.490Z,7.45
2019-02-28T01:36:48.827Z,7.72
2019-02-28T01:37:21.178Z,7.30
2019-02-28T01:37:53.212Z,7.97
2019-02-28T01:38:25.207Z,7.45
2019-02-28T01:38:58.107Z,7.47
2019-02-28T01:39:30.742Z,8.00
2019-02-28T01:40:04.321Z,8.00
2019-02-28T01:40:35.141Z,7.67
2019-02-28T01:41:08.371Z,7.35
2019-02-28T01:41:42.340Z,8.25
2019-02-28T01:42:16.258Z,8.00
2019-02-28T01:42:46.726Z,7.30
2019-02-28T01:43:17.924Z,8.15
2019-02-28T01:43:49.177Z,8.10
2019-02-28T01:44:20.371Z,8.08
2019-02-28T01:44:51.582Z,7.97
2019-02-28T01:45:22.800Z,7.83
2019-02-28T01:45:54.007Z,8.18
2019-02-28T01:46:25.259Z,7.95
2019-02-28T01:46:56.721Z,7.25
2019-02-28T01:47:27.971Z,7.05
2019-02-28T01:47:59.177Z,7.87
2019-02-28T01:48:30.391Z,7.55
2019-02-28T01:49:01.623Z,7.33
2019-02-28T01:49:32.904Z,6.67
2019-02-28T01:50:04.132Z,7.85
2019-02-28T01:50:35.331Z,8.18
2019-02-28T01:51:06.530Z,7.90
2019-02-28T01:51:37.772Z,7.50
2019-02-28T01:52:10.178Z,7.95
2019-02-28T01:52:45.840Z,7.60
2019-02-28T01:53:18.750Z,7.62
2019-02-28T01:53:50.408Z,7.97
2019-02-28T01:54:20.880Z,7.60
2019-02-28T01:54:52.097Z,8.15
2019-02-28T01:55:23.391Z,8.00
2019-02-28T01:55:54.591Z,7.87
2019-02-28T01:56:25.786Z,7.65
2019-02-28T01:56:57.012Z,8.20
2019-02-28T01:57:28.268Z,8.10
2019-02-28T01:57:59.545Z,7.92
2019-02-28T01:58:30.758Z,8.58
2019-02-28T01:59:01.970Z,7.28
2019-02-28T01:59:33.193Z,8.30
2019-02-28T02:00:04.424Z,8.18
2019-02-28T02:00:35.685Z,7.83
2019-02-28T02:01:06.905Z,8.35
2019-02-28T02:01:38.102Z,8.25
2019-02-28T02:02:09.312Z,7.83
2019-02-28T02:02:40.546Z,8.80
2019-02-28T02:03:11.775Z,8.33
2019-02-28T02:03:43.007Z,8.55
2019-02-28T02:04:14.226Z,8.90
2019-02-28T02:04:45.763Z,8.45
2019-02-28T02:05:18.095Z,8.75
2019-02-28T02:05:51.665Z,8.08
2019-02-28T02:06:25.507Z,8.90
2019-02-28T02:06:59.641Z,8.23
2019-02-28T02:07:30.562Z,8.03
2019-02-28T02:08:01.216Z,8.70
2019-02-28T02:08:32.773Z,8.40
2019-02-28T02:09:03.976Z,8.75
2019-02-28T02:09:35.187Z,9.65
2019-02-28T02:10:06.398Z,8.35
2019-02-28T02:10:37.599Z,10.15
2019-02-28T02:11:08.845Z,9.00
2019-02-28T02:11:40.060Z,9.53
2019-02-28T02:12:11.268Z,8.75
2019-02-28T02:12:42.470Z,9.28
2019-02-28T02:13:13.677Z,9.30
2019-02-28T02:13:44.881Z,9.10
2019-02-28T02:14:16.106Z,8.98
2019-02-28T02:14:47.326Z,9.50
2019-02-28T02:15:18.550Z,10.30
2019-02-28T02:15:51.258Z,10.00
2019-02-28T02:16:26.812Z,9.10
2019-02-28T02:16:58.238Z,9.40
2019-02-28T02:17:28.601Z,8.43
2019-02-28T02:17:59.857Z,8.78
2019-02-28T02:18:31.106Z,8.60
2019-02-28T02:19:02.343Z,8.95
2019-02-28T02:19:33.580Z,9.08
2019-02-28T02:20:04.805Z,8.43
2019-02-28T02:20:36.005Z,9.18
2019-02-28T02:21:07.213Z,8.25
2019-02-28T02:21:38.424Z,9.08
2019-02-28T02:22:10.233Z,8.50
2019-02-28T02:22:44.596Z,7.40
2019-02-28T02:23:17.813Z,7.78
2019-02-28T02:23:49.659Z,8.08
2019-02-28T02:24:20.369Z,7.60
2019-02-28T02:24:51.615Z,7.10
2019-02-28T02:25:22.843Z,8.50
2019-02-28T02:25:54.071Z,8.18
2019-02-28T02:26:25.255Z,8.25
2019-02-28T02:26:56.459Z,6.92
2019-02-28T02:27:27.665Z,7.58
2019-02-28T02:27:58.883Z,8.10
2019-02-28T02:28:32.367Z,7.75
2019-02-28T02:29:03.628Z,7.42
2019-02-28T02:29:36.456Z,6.53
2019-02-28T02:30:13.632Z,8.00
2019-02-28T02:30:41.202Z,7.42
2019-02-28T02:31:12.410Z,6.37
2019-02-28T02:31:43.841Z,7.50
2019-02-28T02:32:15.047Z,6.85
2019-02-28T02:32:46.309Z,7.30
2019-02-28T02:33:17.516Z,6.15
2019-02-28T02:33:52.410Z,6.80
2019-02-28T02:34:24.357Z,6.85
2019-02-28T02:34:54.620Z,8.10
2019-02-28T02:35:25.822Z,7.25
2019-02-28T02:35:57.043Z,6.83
2019-02-28T02:36:28.260Z,7.10
2019-02-28T02:36:59.469Z,7.08
2019-02-28T02:37:31.394Z,7.22
2019-02-28T02:38:04.616Z,6.78
2019-02-28T02:38:40.071Z,5.53
2019-02-28T02:39:08.638Z,5.83
2019-02-28T02:39:39.842Z,6.83
2019-02-28T02:40:11.055Z,6.40
2019-02-28T02:40:42.306Z,6.87
2019-02-28T02:41:13.551Z,6.45
2019-02-28T02:41:44.771Z,6.67
2019-02-28T02:42:15.980Z,6.33
2019-02-28T02:42:49.612Z,6.15
2019-02-28T02:43:22.120Z,6.92
2019-02-28T02:43:55.066Z,6.83
2019-02-28T02:44:30.674Z,6.70
2019-02-28T02:44:59.042Z,7.40
2019-02-28T02:45:30.248Z,7.22
2019-02-28T02:46:01.551Z,6.62
2019-02-28T02:46:32.762Z,6.67
2019-02-28T02:47:03.975Z,7.70
2019-02-28T02:47:35.228Z,8.38
2019-02-28T02:48:06.877Z,8.93
2019-02-28T02:48:38.545Z,8.85
2019-02-28T02:49:18.519Z,9.55
2019-02-28T02:49:44.143Z,8.43
2019-02-28T02:50:15.555Z,8.38
2019-02-28T02:50:46.786Z,8.75
2019-02-28T02:51:17.991Z,8.43
2019-02-28T02:51:50.739Z,8.95
2019-02-28T02:52:25.939Z,7.85
2019-02-28T02:52:55.029Z,8.40
2019-02-28T02:53:26.212Z,7.75
2019-02-28T02:53:57.411Z,8.35
2019-02-28T02:54:28.817Z,7.95
2019-02-28T02:55:00.022Z,8.00
2019-02-28T02:55:31.272Z,7.95
2019-02-28T02:56:03.858Z,6.83
2019-02-28T02:56:40.666Z,7.17
2019-02-28T02:57:08.365Z,7.15
2019-02-28T02:57:39.608Z,6.92
2019-02-28T02:58:10.882Z,8.23
2019-02-28T02:58:42.105Z,7.33
2019-02-28T02:59:13.303Z,7.17
2019-02-28T02:59:44.515Z,7.78
2019-02-28T03:00:15.729Z,7.80
2019-02-28T03:00:51.259Z,6.50
2019-02-28T03:01:23.096Z,7.58
2019-02-28T03:01:56.137Z,7.20
2019-02-28T03:02:28.832Z,8.50
2019-02-28T03:02:58.769Z,7.10
2019-02-28T03:03:30.040Z,9.08
2019-02-28T03:04:01.234Z,8.23
2019-02-28T03:04:32.642Z,9.35
2019-02-28T03:05:03.866Z,8.38
2019-02-28T03:05:36.677Z,8.45
2019-02-28T03:06:12.178Z,9.23
2019-02-28T03:06:41.017Z,9.30
2019-02-28T03:07:12.218Z,7.85
2019-02-28T03:07:43.445Z,8.98
2019-02-28T03:08:14.716Z,10.70
2019-02-28T03:08:45.976Z,8.45
2019-02-28T03:09:17.279Z,10.15
2019-02-28T03:09:48.536Z,10.32
2019-02-28T03:10:20.068Z,8.53
2019-02-28T03:10:53.040Z,11.12
2019-02-28T03:11:25.873Z,10.05
2019-02-28T03:11:57.975Z,10.00
2019-02-28T03:12:32.655Z,9.38
2019-02-28T03:13:06.007Z,9.00
2019-02-28T03:13:42.129Z,9.95
2019-02-28T03:14:10.042Z,8.90
2019-02-28T03:14:41.277Z,10.10
2019-02-28T03:15:12.502Z,9.18
2019-02-28T03:15:43.723Z,10.40
2019-02-28T03:16:14.927Z,9.53
2019-02-28T03:16:46.132Z,9.38
2019-02-28T03:17:17.373Z,9.53
2019-02-28T03:17:49.113Z,9.13
2019-02-28T03:18:21.691Z,9.18
2019-02-28T03:18:56.940Z,7.50
2019-02-28T03:19:33.165Z,6.42
2019-02-28T03:19:59.010Z,8.90
2019-02-28T03:20:30.308Z,8.73
2019-02-28T03:21:01.558Z,8.60
2019-02-28T03:21:32.723Z,6.97
2019-02-28T03:22:04.036Z,8.25
2019-02-28T03:22:35.244Z,9.20
2019-02-28T03:23:06.444Z,8.25
2019-02-28T03:23:40.113Z,8.00
2019-02-28T03:24:14.652Z,7.90
2019-02-28T03:24:50.644Z,8.45
2019-02-28T03:25:16.517Z,7.97
2019-02-28T03:25:47.701Z,7.78
2019-02-28T03:26:18.958Z,8.25
2019-02-28T03:26:50.215Z,8.25
2019-02-28T03:27:21.425Z,7.72
2019-02-28T03:27:56.413Z,8.08
2019-02-28T03:28:28.161Z,7.90
2019-02-28T03:28:58.537Z,7.90
2019-02-28T03:29:29.747Z,8.33
2019-02-28T03:30:00.952Z,8.58
2019-02-28T03:30:33.475Z,8.15
2019-02-28T03:31:12.138Z,8.08
2019-02-28T03:31:38.008Z,8.60
2019-02-28T03:32:09.213Z,6.83
2019-02-28T03:32:42.739Z,8.25
2019-02-28T03:33:23.453Z,8.15
2019-02-28T03:33:46.321Z,8.20
2019-02-28T03:34:17.530Z,7.47
2019-02-28T03:34:56.161Z,7.42
2019-02-28T03:35:21.737Z,6.62
2019-02-28T03:35:53.001Z,8.10
2019-02-28T03:36:24.228Z,7.45
2019-02-28T03:36:57.352Z,8.23
2019-02-28T03:37:32.865Z,6.92
2019-02-28T03:38:01.278Z,7.95
2019-02-28T03:38:32.476Z,7.12
2019-02-28T03:39:03.701Z,7.12
2019-02-28T03:39:34.948Z,7.47
2019-02-28T03:40:06.162Z,8.28
2019-02-28T03:40:40.227Z,7.92
2019-02-28T03:41:16.109Z,8.18
2019-02-28T03:41:43.222Z,7.92
2019-02-28T03:42:14.435Z,7.58
2019-02-28T03:42:45.658Z,7.58
2019-02-28T03:43:16.870Z,7.60
2019-02-28T03:43:48.096Z,6.83
2019-02-28T03:44:21.619Z,8.03
2019-02-28T03:44:56.726Z,7.55
2019-02-28T03:45:33.680Z,6.65
2019-02-28T03:45:58.441Z,7.80
2019-02-28T03:46:29.634Z,6.90
2019-02-28T03:47:00.838Z,6.95
2019-02-28T03:47:32.050Z,7.33
2019-02-28T03:48:03.262Z,7.80
2019-02-28T03:48:35.911Z,6.95
2019-02-28T03:49:11.542Z,7.53
2019-02-28T03:49:40.435Z,6.90
2019-02-28T03:50:11.671Z,7.72
2019-02-28T03:50:42.882Z,7.33
2019-02-28T03:51:14.077Z,7.60
2019-02-28T03:51:45.274Z,7.70
2019-02-28T03:52:16.487Z,6.05
2019-02-28T03:52:47.698Z,7.70
2019-02-28T03:53:19.931Z,7.17
2019-02-28T03:53:55.571Z,7.65
2019-02-28T03:54:28.773Z,6.85
2019-02-28T03:55:03.241Z,7.25
2019-02-28T03:55:30.793Z,7.17
2019-02-28T03:56:02.031Z,7.70
2019-02-28T03:56:33.273Z,7.80
2019-02-28T03:57:04.463Z,6.72
2019-02-28T03:57:35.729Z,7.08
2019-02-28T03:58:06.953Z,6.80
2019-02-28T03:58:42.845Z,8.18
2019-02-28T03:59:18.220Z,6.83
2019-02-28T03:59:44.071Z,7.67
2019-02-28T04:00:15.302Z,7.15
2019-02-28T04:00:46.543Z,7.50
2019-02-28T04:01:17.787Z,7.87
2019-02-28T04:01:49.058Z,6.17
2019-02-28T04:02:22.206Z,8.08
2019-02-28T04:02:58.699Z,7.65
2019-02-28T04:03:26.153Z,7.33
2019-02-28T04:03:57.373Z,7.40
2019-02-28T04:04:28.563Z,7.72
2019-02-28T04:04:59.791Z,7.37
2019-02-28T04:05:30.999Z,5.45
2019-02-28T04:06:03.798Z,6.75
2019-02-28T04:06:39.531Z,7.58
2019-02-28T04:07:08.128Z,6.83
2019-02-28T04:07:39.387Z,7.42
2019-02-28T04:08:10.590Z,7.22
2019-02-28T04:08:41.804Z,7.62
2019-02-28T04:09:13.032Z,7.70
2019-02-28T04:09:45.342Z,7.75
2019-02-28T04:10:21.977Z,7.45
2019-02-28T04:10:49.694Z,7.20
2019-02-28T04:11:20.909Z,7.10
2019-02-28T04:11:52.216Z,7.28
2019-02-28T04:12:23.482Z,7.42
2019-02-28T04:12:54.693Z,6.53
2019-02-28T04:13:25.931Z,6.65
2019-02-28T04:13:57.142Z,7.62
2019-02-28T04:14:32.742Z,6.53
2019-02-28T04:15:05.831Z,7.05
2019-02-28T04:15:34.394Z,7.42
2019-02-28T04:16:09.073Z,7.70
2019-02-28T04:16:38.527Z,7.30
2019-02-28T04:17:09.737Z,7.67
2019-02-28T04:17:41.036Z,7.30
2019-02-28T04:18:12.267Z,7.42
2019-02-28T04:18:45.911Z,6.78
2019-02-28T04:19:21.249Z,7.42
2019-02-28T04:19:49.330Z,6.90
2019-02-28T04:20:20.599Z,6.80
2019-02-28T04:20:51.817Z,7.35
2019-02-28T04:21:23.057Z,5.60
2019-02-28T04:21:54.258Z,7.35
2019-02-28T04:22:25.541Z,5.45
2019-02-28T04:22:59.908Z,7.58
2019-02-28T04:23:35.486Z,7.17
2019-02-28T04:24:02.698Z,7.60
2019-02-28T04:24:33.949Z,6.35
2019-02-28T04:25:05.171Z,7.70
2019-02-28T04:25:36.385Z,7.53
2019-02-28T04:26:07.640Z,5.95
2019-02-28T04:26:38.834Z,7.00
2019-02-28T04:27:10.047Z,7.65
2019-02-28T04:27:41.799Z,7.33
2019-02-28T04:28:16.980Z,7.60
2019-02-28T04:28:46.264Z,7.58
2019-02-28T04:29:17.459Z,7.50
2019-02-28T04:29:48.690Z,7.33
2019-02-28T04:30:19.911Z,7.20
2019-02-28T04:30:51.137Z,7.33
2019-02-28T04:31:22.380Z,7.45
2019-02-28T04:31:53.594Z,7.30
2019-02-28T04:32:27.660Z,7.70
2019-02-28T04:33:01.069Z,7.37
2019-02-28T04:33:37.548Z,7.50
2019-02-28T04:34:03.735Z,7.33
2019-02-28T04:34:34.943Z,7.42
2019-02-28T04:35:06.134Z,7.37
2019-02-28T04:35:37.386Z,7.12
2019-02-28T04:36:08.602Z,7.95
2019-02-28T04:36:39.840Z,7.30
2019-02-28T04:37:11.065Z,6.83
2019-02-28T04:37:46.549Z,7.70
2019-02-28T04:38:15.186Z,7.22
2019-02-28T04:38:46.397Z,6.53
2019-02-28T04:39:17.592Z,6.90
2019-02-28T04:39:48.795Z,7.60
2019-02-28T04:40:20.025Z,8.13
2019-02-28T04:40:51.228Z,7.33
2019-02-28T04:41:22.460Z,8.05
2019-02-28T04:41:53.702Z,7.05
2019-02-28T04:42:24.902Z,6.58
2019-02-28T04:42:56.117Z,7.50
2019-02-28T04:43:27.402Z,7.83
2019-02-28T04:43:58.616Z,7.90
2019-02-28T04:44:29.827Z,7.45
2019-02-28T04:45:01.065Z,7.72
2019-02-28T04:45:32.273Z,7.78
2019-02-28T04:46:03.486Z,6.95
2019-02-28T04:46:34.715Z,7.22
2019-02-28T04:47:06.831Z,7.22
2019-02-28T04:47:40.551Z,7.47
2019-02-28T04:48:14.047Z,7.87
2019-02-28T04:48:45.678Z,7.92
2019-02-28T04:49:21.838Z,7.58
2019-02-28T04:49:53.498Z,7.90
2019-02-28T04:50:23.805Z,7.65
2019-02-28T04:50:55.017Z,7.40
2019-02-28T04:51:26.221Z,6.67
2019-02-28T04:51:57.435Z,7.30
2019-02-28T04:52:28.659Z,7.95
2019-02-28T04:52:59.847Z,7.25
2019-02-28T04:53:31.068Z,7.08
2019-02-28T04:54:02.484Z,7.25
2019-02-28T04:54:33.737Z,6.12
2019-02-28T04:55:04.976Z,7.20
2019-02-28T04:55:37.369Z,6.87
2019-02-28T04:56:11.588Z,7.42
2019-02-28T04:56:42.237Z,7.35
2019-02-28T04:57:17.418Z,7.30
2019-02-28T04:57:47.945Z,7.35
2019-02-28T04:58:19.162Z,6.92
2019-02-28T04:58:50.392Z,6.90
2019-02-28T04:59:21.575Z,7.20
2019-02-28T04:59:52.844Z,6.28
2019-02-28T05:00:24.038Z,6.97
2019-02-28T05:00:55.247Z,7.22
2019-02-28T05:01:26.461Z,6.72
2019-02-28T05:01:57.665Z,6.90
2019-02-28T05:02:28.874Z,7.22
2019-02-28T05:03:00.095Z,6.90
2019-02-28T05:03:31.356Z,7.47
2019-02-28T05:04:03.062Z,6.35
2019-02-28T05:04:36.110Z,7.33
2019-02-28T05:05:12.189Z,7.65
2019-02-28T05:05:40.219Z,7.90
2019-02-28T05:06:11.439Z,7.40
2019-02-28T05:06:42.700Z,8.08
2019-02-28T05:07:13.905Z,7.33
2019-02-28T05:07:45.109Z,7.60
2019-02-28T05:08:16.331Z,7.65
2019-02-28T05:08:47.577Z,7.05
2019-02-28T05:09:18.797Z,7.10
2019-02-28T05:09:49.994Z,7.72
2019-02-28T05:10:22.268Z,7.70
2019-02-28T05:10:55.811Z,7.87
2019-02-28T05:11:30.434Z,8.10
2019-02-28T05:12:02.496Z,7.67
2019-02-28T05:12:33.057Z,7.62
2019-02-28T05:13:04.297Z,8.23
2019-02-28T05:13:35.497Z,8.40
2019-02-28T05:14:06.815Z,8.38
2019-02-28T05:14:38.041Z,8.55
2019-02-28T05:15:09.264Z,8.75
2019-02-28T05:15:41.186Z,8.30
2019-02-28T05:16:13.192Z,9.05
2019-02-28T05:16:47.537Z,8.68
2019-02-28T05:17:19.309Z,8.10
2019-02-28T05:17:53.166Z,8.48
2019-02-28T05:18:23.295Z,9.18
2019-02-28T05:18:54.501Z,8.90
2019-02-28T05:19:25.717Z,9.48
2019-02-28T05:19:56.953Z,8.30
2019-02-28T05:20:28.541Z,8.90
2019-02-28T05:20:59.781Z,8.60
2019-02-28T05:21:30.976Z,8.50
2019-02-28T05:22:02.197Z,9.15
2019-02-28T05:22:33.390Z,9.13
2019-02-28T05:23:04.632Z,8.58
2019-02-28T05:23:36.746Z,9.73
2019-02-28T05:24:08.654Z,9.05
2019-02-28T05:24:42.640Z,8.28
2019-02-28T05:25:17.612Z,9.40
2019-02-28T05:25:46.013Z,10.00
2019-02-28T05:26:17.222Z,9.45
2019-02-28T05:26:48.412Z,10.40
2019-02-28T05:27:19.630Z,10.00
2019-02-28T05:27:50.835Z,9.30
2019-02-28T05:28:22.111Z,8.00
2019-02-28T05:28:53.326Z,9.35
2019-02-28T05:29:24.559Z,9.85
2019-02-28T05:29:55.760Z,8.23
2019-02-28T05:30:26.960Z,9.60
2019-02-28T05:30:58.198Z,9.20
2019-02-28T05:31:29.386Z,9.45
2019-02-28T05:32:00.984Z,9.03
2019-02-28T05:32:35.739Z,8.90
2019-02-28T05:33:07.369Z,8.53
2019-02-28T05:33:42.089Z,9.00
2019-02-28T05:34:13.188Z,9.10
2019-02-28T05:34:47.431Z,8.98
2019-02-28T05:35:17.459Z,9.60
2019-02-28T05:35:48.656Z,9.28
2019-02-28T05:36:19.890Z,9.33
2019-02-28T05:36:51.094Z,9.05
2019-02-28T05:37:22.329Z,8.65
2019-02-28T05:37:53.494Z,9.10
2019-02-28T05:38:25.893Z,9.23
2019-02-28T05:38:57.344Z,9.38
2019-02-28T05:39:30.982Z,9.53
2019-02-28T05:40:05.423Z,9.73
2019-02-28T05:40:40.209Z,9.45
2019-02-28T05:41:07.454Z,9.15
2019-02-28T05:41:38.666Z,9.70
2019-02-28T05:42:09.847Z,9.60
2019-02-28T05:42:41.436Z,9.85
2019-02-28T05:43:12.647Z,9.65
2019-02-28T05:43:43.883Z,9.70
2019-02-28T05:44:15.146Z,10.35
2019-02-28T05:44:46.333Z,9.48
2019-02-28T05:45:17.548Z,9.43
2019-02-28T05:45:49.698Z,8.83
2019-02-28T05:46:23.648Z,9.10
2019-02-28T05:46:57.613Z,9.13
2019-02-28T05:47:29.393Z,10.20
2019-02-28T05:48:00.160Z,9.48
2019-02-28T05:48:31.415Z,9.13
2019-02-28T05:49:02.660Z,9.23
2019-02-28T05:49:33.872Z,8.58
2019-02-28T05:50:05.099Z,9.05
2019-02-28T05:50:36.316Z,9.48
2019-02-28T05:51:07.520Z,9.95
2019-02-28T05:51:38.737Z,9.50
2019-02-28T05:52:09.927Z,10.10
2019-02-28T05:52:41.170Z,9.83
2019-02-28T05:53:12.433Z,10.40
2019-02-28T05:53:43.634Z,10.82
2019-02-28T05:54:16.975Z,10.45
2019-02-28T05:54:50.535Z,10.23
2019-02-28T05:55:24.474Z,10.23
2019-02-28T05:55:59.005Z,10.85
2019-02-28T05:56:26.868Z,10.20
2019-02-28T05:56:58.102Z,9.03
2019-02-28T05:57:29.356Z,10.48
2019-02-28T05:58:00.576Z,9.90
2019-02-28T05:58:31.777Z,10.43
2019-02-28T05:59:02.993Z,9.55
2019-02-28T05:59:34.189Z,8.70
2019-02-28T06:00:05.393Z,10.08
2019-02-28T06:00:36.966Z,10.18
2019-02-28T06:01:11.955Z,9.65
2019-02-28T06:01:43.513Z,9.55
2019-02-28T06:02:14.916Z,9.25
2019-02-28T06:02:46.269Z,9.33
2019-02-28T06:03:17.657Z,9.23
2019-02-28T06:03:48.872Z,8.45
2019-02-28T06:04:20.069Z,9.10
2019-02-28T06:04:51.298Z,9.10
2019-02-28T06:05:22.418Z,8.65
2019-02-28T06:05:53.618Z,8.70
2019-02-28T06:06:24.881Z,8.78
2019-02-28T06:06:56.094Z,8.55
2019-02-28T06:07:28.687Z,9.03
2019-02-28T06:08:00.453Z,8.85
2019-02-28T06:08:35.513Z,9.13
2019-02-28T06:09:06.133Z,7.95
2019-02-28T06:09:37.386Z,8.50
2019-02-28T06:10:08.598Z,8.18
2019-02-28T06:10:39.805Z,8.60
2019-02-28T06:11:11.018Z,8.68
2019-02-28T06:11:42.242Z,8.35
2019-02-28T06:12:13.443Z,8.18
2019-02-28T06:12:45.052Z,8.53
2019-02-28T06:13:18.297Z,8.20
2019-02-28T06:13:49.607Z,8.85
2019-02-28T06:14:26.709Z,8.38
2019-02-28T06:14:55.276Z,8.18
2019-02-28T06:15:26.517Z,8.98
2019-02-28T06:15:57.729Z,8.60
2019-02-28T06:16:28.934Z,7.80
2019-02-28T06:17:00.150Z,8.83
2019-02-28T06:17:31.363Z,8.40
2019-02-28T06:18:02.582Z,8.43
2019-02-28T06:18:33.791Z,8.35
2019-02-28T06:19:08.350Z,8.70
2019-02-28T06:19:40.188Z,8.85
2019-02-28T06:20:10.891Z,8.60
2019-02-28T06:20:42.085Z,8.65
2019-02-28T06:21:13.297Z,8.90
2019-02-28T06:21:44.512Z,8.65
2019-02-28T06:22:15.736Z,8.85
2019-02-28T06:22:46.941Z,7.97
2019-02-28T06:23:18.194Z,8.23
2019-02-28T06:23:49.412Z,8.38
2019-02-28T06:24:20.630Z,8.33
2019-02-28T06:24:51.831Z,8.75
2019-02-28T06:25:25.332Z,8.15
2019-02-28T06:25:59.419Z,6.55
2019-02-28T06:26:31.905Z,8.10
2019-02-28T06:27:03.685Z,7.12
2019-02-28T06:27:41.708Z,8.15
2019-02-28T06:28:07.802Z,7.25
2019-02-28T06:28:39.072Z,7.95
2019-02-28T06:29:10.287Z,7.70
2019-02-28T06:29:41.495Z,7.78
2019-02-28T06:30:12.727Z,7.35
2019-02-28T06:30:43.926Z,8.23
2019-02-28T06:31:15.296Z,7.60
2019-02-28T06:31:48.611Z,8.38
2019-02-28T06:32:23.236Z,8.15
2019-02-28T06:32:57.636Z,7.40
2019-02-28T06:33:25.342Z,8.23
2019-02-28T06:33:59.570Z,7.00
2019-02-28T06:34:30.842Z,7.50
2019-02-28T06:35:02.043Z,7.87
2019-02-28T06:35:33.292Z,6.97
2019-02-28T06:36:04.687Z,6.70
2019-02-28T06:36:35.884Z,8.20
2019-02-28T06:37:07.105Z,8.00
2019-02-28T06:37:39.109Z,7.30
2019-02-28T06:38:10.872Z,7.87
2019-02-28T06:38:42.094Z,7.60
2019-02-28T06:39:13.381Z,7.15
2019-02-28T06:39:44.583Z,7.50
2019-02-28T06:40:15.852Z,7.40
2019-02-28T06:40:47.088Z,8.30
2019-02-28T06:41:18.290Z,6.08
2019-02-28T06:41:49.561Z,7.92
2019-02-28T06:42:20.773Z,6.97
2019-02-28T06:42:51.985Z,7.97
2019-02-28T06:43:23.226Z,7.58
2019-02-28T06:43:54.433Z,7.42
2019-02-28T06:44:27.014Z,7.03
2019-02-28T06:45:02.203Z,6.83
2019-02-28T06:45:36.670Z,7.67
2019-02-28T06:46:04.621Z,6.67
2019-02-28T06:46:39.878Z,7.05
2019-02-28T06:47:14.262Z,5.25
2019-02-28T06:47:48.248Z,7.08
2019-02-28T06:48:20.844Z,4.87
2019-02-28T06:48:52.991Z,6.65
2019-02-28T06:49:24.205Z,6.15
2019-02-28T06:49:55.416Z,5.37
2019-02-28T06:50:26.618Z,6.70
2019-02-28T06:50:57.812Z,6.95
2019-02-28T06:51:29.053Z,7.17
2019-02-28T06:52:00.265Z,6.35
2019-02-28T06:52:31.485Z,5.08
2019-02-28T06:53:02.668Z,6.33
2019-02-28T06:53:36.211Z,6.40
2019-02-28T06:54:07.989Z,6.12
2019-02-28T06:54:41.062Z,5.22
2019-02-28T06:55:13.292Z,5.85
2019-02-28T06:55:46.430Z,6.80
2019-02-28T06:56:22.192Z,5.90
2019-02-28T06:56:50.517Z,6.67
2019-02-28T06:57:23.452Z,6.12
2019-02-28T06:57:54.667Z,6.35
2019-02-28T06:58:25.896Z,5.47
2019-02-28T06:58:57.097Z,6.47
2019-02-28T06:59:28.298Z,5.40
2019-02-28T06:59:59.539Z,6.12
2019-02-28T07:00:30.756Z,6.03